Time;durP1;ratioP1;P1;durP2;ratioP2;P2;SDS_P1;SDS_P2;PMS_P1;PMS_P2;Temp;Humidity;BMP_temperature;BMP_pressure;BME280_temperature;BME280_humidity;BME280_pressure;Samples;Min_cycle;Max_cycle;Signal;HPM_P1;HPM_P2
2022/09/21 00:02:03;;;;;;;1.25;1.00;;;13.20;99.40;;;;;;5037063;28;20203;-72
2022/09/21 00:04:30;;;;;;;1.20;1.10;;;13.20;99.70;;;;;;5031909;28;20241;-72
2022/09/21 00:06:57;;;;;;;1.17;1.08;;;13.20;99.90;;;;;;5035692;28;20196;-72
2022/09/21 00:09:24;;;;;;;1.08;1.08;;;13.20;99.90;;;;;;5032465;28;21258;-72
2022/09/21 00:11:53;;;;;;;1.17;1.15;;;13.10;99.90;;;;;;5037545;28;20199;-72
2022/09/21 00:14:21;;;;;;;2.03;1.17;;;13.00;99.90;;;;;;5033757;28;20219;-73
2022/09/21 00:16:48;;;;;;;1.23;1.10;;;12.90;99.90;;;;;;5032391;28;20223;-73
2022/09/21 00:19:16;;;;;;;1.20;1.20;;;12.90;99.90;;;;;;5029749;28;20243;-73
2022/09/21 00:21:43;;;;;;;1.25;0.90;;;12.80;99.90;;;;;;5031955;28;20203;-73
2022/09/21 00:24:11;;;;;;;1.20;1.20;;;12.80;99.90;;;;;;5031356;28;20231;-73
2022/09/21 00:26:38;;;;;;;1.05;0.93;;;12.80;99.90;;;;;;5031575;28;20195;-74
2022/09/21 00:29:07;;;;;;;1.08;1.08;;;12.80;99.90;;;;;;5030461;28;20731;-74
2022/09/21 00:31:34;;;;;;;1.48;1.38;;;12.80;99.90;;;;;;5033618;28;20250;-74
2022/09/21 00:34:02;;;;;;;0.93;0.93;;;12.80;99.90;;;;;;5032806;28;20231;-74
2022/09/21 00:36:30;;;;;;;1.27;1.20;;;12.70;99.90;;;;;;5031656;28;20282;-74
2022/09/21 00:38:59;;;;;;;1.33;1.23;;;12.80;99.90;;;;;;5035806;28;20223;-74
2022/09/21 00:41:29;;;;;;;0.95;0.95;;;12.80;99.90;;;;;;5032952;28;20218;-74
2022/09/21 00:44:33;;;;;;;1.10;1.10;;;12.80;99.90;;;;;;5032934;28;20223;-74
2022/09/21 00:47:07;;;;;;;1.20;1.20;;;12.80;99.90;;;;;;5036684;28;20242;-74
2022/09/21 00:49:36;;;;;;;1.48;1.38;;;12.70;99.90;;;;;;5031546;28;20218;-74
2022/09/21 00:52:05;;;;;;;1.20;1.10;;;12.70;99.90;;;;;;5029449;28;20216;-74
2022/09/21 00:54:39;;;;;;;1.30;1.20;;;12.60;99.90;;;;;;5032656;28;20236;-74
2022/09/21 00:57:06;;;;;;;1.55;1.45;;;12.60;99.90;;;;;;5046209;28;20216;-74
2022/09/21 00:59:38;;;;;;;1.27;1.27;;;12.50;99.90;;;;;;5045543;28;20219;-74
2022/09/21 01:02:07;;;;;;;1.60;1.50;;;12.50;99.90;;;;;;5032382;28;20200;-73
2022/09/21 01:04:35;;;;;;;1.63;1.52;;;12.40;99.90;;;;;;5033267;28;20215;-73
2022/09/21 01:07:07;;;;;;;1.10;1.10;;;12.40;99.90;;;;;;5048139;28;20275;-73
2022/09/21 01:09:35;;;;;;;1.40;1.25;;;12.40;99.90;;;;;;5031833;28;20285;-73
2022/09/21 01:12:17;;;;;;;1.30;1.30;;;12.30;99.90;;;;;;5030979;28;20207;-72
2022/09/21 01:15:23;;;;;;;0.88;0.80;;;12.40;99.90;;;;;;5031455;28;21986;-72
2022/09/21 01:18:01;;;;;;;1.00;1.00;;;12.40;99.90;;;;;;5009847;28;20191;-72
2022/09/21 01:20:47;;;;;;;1.83;1.73;;;12.50;99.90;;;;;;5031342;28;20204;-71
2022/09/21 01:23:51;;;;;;;1.20;1.20;;;12.50;99.90;;;;;;5030782;28;20219;-72
2022/09/21 01:26:26;;;;;;;1.45;1.30;;;12.40;99.90;;;;;;5027691;28;20597;-71
2022/09/21 01:29:13;;;;;;;1.00;1.00;;;12.40;99.90;;;;;;5032021;28;20785;-72
2022/09/21 01:31:43;;;;;;;1.13;1.13;;;12.30;99.90;;;;;;5033663;28;20821;-71
2022/09/21 01:34:18;;;;;;;2.10;1.23;;;12.30;99.90;;;;;;5035964;28;20243;-72
2022/09/21 01:36:48;;;;;;;1.05;1.02;;;12.30;99.90;;;;;;5031318;28;20296;-71
2022/09/21 01:39:19;;;;;;;1.23;1.15;;;12.30;99.90;;;;;;5034637;28;20273;-72
2022/09/21 01:41:50;;;;;;;1.20;1.20;;;12.20;99.90;;;;;;5028816;28;20196;-71
2022/09/21 01:44:22;;;;;;;1.20;1.15;;;12.30;99.90;;;;;;5032119;28;20270;-72
2022/09/21 01:46:50;;;;;;;1.08;1.08;;;12.20;99.90;;;;;;5029415;28;20204;-71
2022/09/21 01:49:24;;;;;;;1.20;1.20;;;12.20;99.90;;;;;;5028600;28;20219;-71
2022/09/21 01:51:57;;;;;;;1.10;1.10;;;12.20;99.90;;;;;;5028342;28;20253;-71
2022/09/21 01:54:29;;;;;;;1.20;1.20;;;12.20;99.90;;;;;;5032671;28;20230;-73
2022/09/21 01:57:02;;;;;;;1.30;1.20;;;12.20;99.90;;;;;;5032890;28;20269;-72
2022/09/21 01:59:37;;;;;;;1.35;1.25;;;12.20;99.90;;;;;;5033578;28;20711;-72
2022/09/21 02:02:12;;;;;;;1.08;1.08;;;12.20;99.90;;;;;;5031347;28;21250;-72
2022/09/21 02:04:39;;;;;;;1.25;1.25;;;12.20;99.90;;;;;;5032048;28;20700;-72
2022/09/21 02:07:07;;;;;;;1.30;1.30;;;12.20;99.90;;;;;;5030747;28;20200;-72
2022/09/21 02:09:35;;;;;;;1.25;1.15;;;12.10;99.90;;;;;;5034017;28;20216;-72
2022/09/21 02:12:03;;;;;;;1.00;1.00;;;12.10;99.90;;;;;;5037623;28;20204;-73
2022/09/21 02:14:34;;;;;;;1.23;1.10;;;12.10;99.90;;;;;;5031187;28;20633;-72
2022/09/21 02:17:13;;;;;;;1.10;1.10;;;12.00;99.90;;;;;;5031981;28;20211;-72
2022/09/21 02:19:46;;;;;;;1.00;1.00;;;12.00;99.90;;;;;;5030472;28;20219;-72
2022/09/21 02:22:18;;;;;;;0.98;0.98;;;11.90;99.90;;;;;;5047951;28;20876;-72
2022/09/21 02:24:49;;;;;;;2.03;1.27;;;11.90;99.90;;;;;;5031044;28;20250;-70
2022/09/21 02:27:28;;;;;;;1.27;1.27;;;11.90;99.90;;;;;;5029270;28;20196;-70
2022/09/21 02:30:05;;;;;;;1.23;1.13;;;11.90;99.90;;;;;;5030502;28;20596;-70
2022/09/21 02:32:39;;;;;;;1.50;1.40;;;11.90;99.90;;;;;;5032667;28;20204;-70
2022/09/21 02:35:14;;;;;;;1.63;1.52;;;11.90;99.90;;;;;;5061389;28;20845;-70
2022/09/21 02:37:48;;;;;;;1.25;1.25;;;11.90;99.90;;;;;;5047975;28;20218;-70
2022/09/21 02:40:22;;;;;;;1.25;1.20;;;11.90;99.90;;;;;;5031163;28;20263;-72
2022/09/21 02:42:56;;;;;;;1.45;1.35;;;11.80;99.90;;;;;;5027592;28;20210;-71
2022/09/21 02:45:29;;;;;;;1.13;1.10;;;11.80;99.90;;;;;;5026841;28;20624;-71
2022/09/21 02:47:59;;;;;;;1.63;1.40;;;11.70;99.90;;;;;;5028835;28;20204;-72
2022/09/21 02:50:34;;;;;;;1.60;1.50;;;11.60;99.90;;;;;;5029445;28;20204;-71
2022/09/21 02:53:04;;;;;;;1.40;1.38;;;11.60;99.90;;;;;;5043437;28;20229;-71
2022/09/21 02:55:33;;;;;;;1.10;1.10;;;11.60;99.90;;;;;;5033917;28;20254;-71
2022/09/21 02:58:04;;;;;;;1.00;1.00;;;11.60;99.90;;;;;;5030657;28;20231;-71
2022/09/21 03:00:34;;;;;;;1.17;1.17;;;11.60;99.90;;;;;;5030886;28;20895;-71
2022/09/21 03:03:15;;;;;;;1.25;1.15;;;11.60;99.90;;;;;;5029861;28;20223;-72
2022/09/21 03:05:43;;;;;;;1.23;1.13;;;11.60;99.90;;;;;;5030761;28;20191;-71
2022/09/21 03:08:10;;;;;;;1.40;1.30;;;11.60;99.90;;;;;;5030347;28;20221;-72
2022/09/21 03:10:39;;;;;;;1.60;1.50;;;11.50;99.90;;;;;;5027401;28;20741;-72
2022/09/21 03:13:07;;;;;;;1.23;1.15;;;11.50;99.90;;;;;;5030533;28;20227;-71
2022/09/21 03:15:36;;;;;;;1.23;1.20;;;11.50;99.90;;;;;;5028576;28;20200;-71
2022/09/21 03:18:04;;;;;;;1.10;1.10;;;11.40;99.90;;;;;;5035355;28;22061;-72
2022/09/21 03:20:32;;;;;;;1.40;1.30;;;11.50;99.90;;;;;;5037639;28;20469;-72
2022/09/21 03:22:59;;;;;;;1.45;1.40;;;11.50;99.90;;;;;;5035503;28;20227;-71
2022/09/21 03:25:27;;;;;;;1.25;1.20;;;11.40;99.90;;;;;;5035618;28;20196;-72
2022/09/21 03:27:54;;;;;;;1.15;1.10;;;11.40;99.90;;;;;;5034604;28;20257;-71
2022/09/21 03:30:22;;;;;;;1.52;1.42;;;11.40;99.90;;;;;;5035881;28;20229;-71
2022/09/21 03:32:51;;;;;;;1.40;1.30;;;11.40;99.90;;;;;;5030500;28;20203;-71
2022/09/21 03:35:19;;;;;;;1.45;1.35;;;11.40;99.90;;;;;;5034629;28;20219;-72
2022/09/21 03:37:46;;;;;;;1.25;1.25;;;11.30;99.90;;;;;;5045928;28;20306;-72
2022/09/21 03:40:14;;;;;;;1.30;1.30;;;11.30;99.90;;;;;;5030707;28;20575;-71
2022/09/21 03:42:41;;;;;;;1.48;1.38;;;11.30;99.90;;;;;;5029558;28;20199;-72
2022/09/21 03:45:11;;;;;;;1.10;1.10;;;11.30;99.90;;;;;;5032106;28;20238;-71
2022/09/21 03:47:39;;;;;;;0.95;0.95;;;11.30;99.90;;;;;;5029319;28;20210;-71
2022/09/21 03:50:09;;;;;;;1.38;1.27;;;11.30;99.90;;;;;;5029507;28;20219;-72
2022/09/21 03:52:38;;;;;;;1.10;1.10;;;11.30;99.90;;;;;;5031307;28;20269;-71
2022/09/21 03:55:06;;;;;;;1.20;1.13;;;11.20;99.90;;;;;;5014685;28;20228;-71
2022/09/21 03:57:34;;;;;;;1.13;1.02;;;11.20;99.90;;;;;;5008770;28;20223;-71
2022/09/21 04:00:02;;;;;;;1.42;1.33;;;11.10;99.90;;;;;;5023860;28;20220;-70
2022/09/21 04:02:30;;;;;;;1.13;1.13;;;11.20;99.90;;;;;;5026180;28;20201;-70
2022/09/21 04:04:58;;;;;;;1.08;1.08;;;11.20;99.90;;;;;;5023249;28;20232;-70
2022/09/21 04:07:33;;;;;;;1.10;1.08;;;11.20;99.90;;;;;;5039200;28;20218;-70
2022/09/21 04:10:00;;;;;;;1.30;1.30;;;11.30;99.90;;;;;;5025958;28;20229;-71
2022/09/21 04:12:27;;;;;;;1.20;1.20;;;11.30;99.90;;;;;;5026510;28;20197;-71
2022/09/21 04:14:54;;;;;;;1.38;1.33;;;11.30;99.90;;;;;;5027768;28;20223;-71
2022/09/21 04:17:21;;;;;;;1.33;1.33;;;11.30;99.90;;;;;;5027580;28;20212;-71
2022/09/21 04:19:48;;;;;;;1.27;1.23;;;11.20;99.90;;;;;;5026924;28;20220;-71
2022/09/21 04:22:17;;;;;;;1.30;1.30;;;11.20;99.90;;;;;;5030325;28;20224;-71
2022/09/21 04:24:46;;;;;;;1.30;1.30;;;11.20;99.90;;;;;;5026170;28;20223;-72
2022/09/21 04:27:13;;;;;;;1.40;1.30;;;11.20;99.90;;;;;;5026390;28;20196;-72
2022/09/21 04:29:40;;;;;;;1.27;1.27;;;11.20;99.90;;;;;;5010071;28;20220;-71
2022/09/21 04:32:08;;;;;;;1.02;1.02;;;11.10;99.90;;;;;;5010977;28;20307;-72
2022/09/21 04:34:36;;;;;;;1.42;1.38;;;11.10;99.90;;;;;;5021843;28;20637;-72
2022/09/21 04:37:03;;;;;;;1.85;1.20;;;11.10;99.90;;;;;;5030683;28;20219;-71
2022/09/21 04:39:30;;;;;;;1.40;1.20;;;11.00;99.90;;;;;;5027995;28;20220;-71
2022/09/21 04:41:59;;;;;;;1.20;1.10;;;10.90;99.90;;;;;;5031333;28;20249;-71
2022/09/21 04:44:26;;;;;;;1.67;1.10;;;10.90;99.90;;;;;;5034544;28;20898;-71
2022/09/21 04:46:53;;;;;;;1.90;1.17;;;10.90;99.90;;;;;;5029674;28;20245;-71
2022/09/21 04:49:21;;;;;;;1.40;1.30;;;10.80;99.90;;;;;;5031806;28;20790;-71
2022/09/21 04:51:48;;;;;;;1.10;1.10;;;10.80;99.90;;;;;;5032708;28;20195;-71
2022/09/21 04:54:15;;;;;;;1.27;1.17;;;10.80;99.90;;;;;;5030857;28;20755;-71
2022/09/21 04:56:42;;;;;;;1.58;1.35;;;10.70;99.90;;;;;;5030031;28;20219;-72
2022/09/21 04:59:11;;;;;;;1.60;1.50;;;10.60;99.90;;;;;;5036113;28;20214;-72
2022/09/21 05:01:38;;;;;;;1.63;1.52;;;10.50;99.90;;;;;;5047099;28;20219;-72
2022/09/21 05:04:05;;;;;;;1.45;1.35;;;10.50;99.90;;;;;;5032200;28;20846;-72
2022/09/21 05:06:34;;;;;;;1.30;1.30;;;10.40;99.90;;;;;;5037480;28;20191;-72
2022/09/21 05:11:46;;;;;;;1.30;1.20;;;10.40;99.90;;;;;;5032530;28;20647;-71
2022/09/21 05:14:15;;;;;;;1.73;1.63;;;10.50;99.90;;;;;;5033655;28;20219;-71
2022/09/21 05:16:42;;;;;;;1.98;1.60;;;10.50;99.90;;;;;;5025563;28;20781;-72
2022/09/21 05:19:09;;;;;;;1.30;1.30;;;10.50;99.90;;;;;;5022183;28;20227;-72
2022/09/21 05:21:36;;;;;;;2.08;1.30;;;10.50;99.90;;;;;;5028072;28;20208;-72
2022/09/21 05:24:05;;;;;;;1.38;1.27;;;10.50;99.90;;;;;;5028557;28;20258;-72
2022/09/21 05:26:33;;;;;;;1.60;1.50;;;10.50;99.90;;;;;;5022955;28;20203;-72
2022/09/21 05:29:01;;;;;;;1.15;1.15;;;10.40;99.90;;;;;;5030493;28;20226;-72
2022/09/21 05:31:43;;;;;;;1.48;1.38;;;10.50;99.90;;;;;;5027800;28;20419;-73
2022/09/21 05:34:37;;;;;;;1.58;1.20;;;10.50;99.90;;;;;;5042888;28;20227;-73
2022/09/21 05:37:09;;;;;;;1.40;1.40;;;10.50;99.90;;;;;;5025233;28;20787;-73
2022/09/21 05:39:36;;;;;;;1.52;1.40;;;10.50;99.90;;;;;;5027495;28;20222;-73
2022/09/21 05:42:05;;;;;;;1.50;1.40;;;10.60;99.90;;;;;;5027835;28;20195;-72
2022/09/21 05:44:33;;;;;;;1.40;1.30;;;10.60;99.90;;;;;;5040749;28;20650;-72
2022/09/21 05:47:06;;;;;;;1.73;1.63;;;10.70;99.90;;;;;;5030271;28;20663;-72
2022/09/21 05:49:45;;;;;;;1.35;1.35;;;10.80;99.90;;;;;;5024554;28;20238;-72
2022/09/21 05:52:25;;;;;;;1.42;1.38;;;11.00;99.90;;;;;;5030923;28;20194;-71
2022/09/21 05:55:02;;;;;;;1.40;1.40;;;11.50;99.90;;;;;;5037104;28;20223;-72
2022/09/21 05:57:41;;;;;;;1.52;1.42;;;12.20;99.90;;;;;;5021640;28;20697;-72
2022/09/21 06:00:16;;;;;;;1.30;1.20;;;12.90;99.90;;;;;;5026972;28;20231;-72
2022/09/21 06:03:22;;;;;;;1.30;1.30;;;13.50;99.90;;;;;;5030166;28;20328;-72
2022/09/21 06:05:49;;;;;;;1.50;1.40;;;14.10;99.90;;;;;;5025324;28;20256;-72
2022/09/21 06:08:17;;;;;;;1.48;1.40;;;14.50;99.90;;;;;;5043190;28;20223;-72
2022/09/21 06:10:44;;;;;;;2.17;1.50;;;14.90;99.90;;;;;;5025970;28;20200;-73
2022/09/21 06:13:11;;;;;;;2.00;1.83;;;15.30;99.90;;;;;;5027001;28;20223;-73
2022/09/21 06:15:39;;;;;;;1.30;1.30;;;15.60;99.90;;;;;;5027619;28;20345;-72
2022/09/21 06:18:08;;;;;;;1.60;1.02;;;15.80;99.90;;;;;;5026433;28;20936;-72
2022/09/21 06:20:35;;;;;;;1.90;1.30;;;16.00;99.90;;;;;;5025186;28;20211;-72
2022/09/21 06:23:03;;;;;;;1.50;1.40;;;16.20;99.90;;;;;;5021928;28;20218;-72
2022/09/21 06:25:30;;;;;;;3.63;1.23;;;16.50;99.90;;;;;;5026301;28;20195;-73
2022/09/21 06:28:03;;;;;;;2.83;1.40;;;16.60;99.90;;;;;;5025518;28;20863;-71
2022/09/21 06:30:32;;;;;;;1.05;1.05;;;16.70;99.90;;;;;;5024470;28;20200;-73
2022/09/21 06:33:00;;;;;;;1.05;1.05;;;17.00;99.90;;;;;;5023396;28;20203;-72
2022/09/21 06:35:29;;;;;;;1.50;1.30;;;17.10;99.60;;;;;;5027167;28;20294;-72
2022/09/21 06:38:00;;;;;;;1.73;1.38;;;17.20;99.50;;;;;;5023917;28;20223;-72
2022/09/21 06:40:27;;;;;;;1.27;1.17;;;17.20;99.40;;;;;;5022846;28;20200;-72
2022/09/21 06:42:58;;;;;;;2.13;1.25;;;17.20;99.20;;;;;;5024426;28;20280;-72
2022/09/21 06:45:26;;;;;;;1.30;1.20;;;17.30;98.40;;;;;;5022024;28;20282;-72
2022/09/21 06:47:53;;;;;;;1.40;1.30;;;17.50;98.90;;;;;;5024671;28;20188;-72
2022/09/21 06:50:21;;;;;;;2.05;1.25;;;17.70;98.50;;;;;;5023295;28;20199;-72
2022/09/21 06:52:50;;;;;;;1.52;1.10;;;17.80;98.10;;;;;;5025322;28;20358;-72
2022/09/21 06:55:18;;;;;;;1.10;1.00;;;17.90;98.10;;;;;;5021427;28;20227;-72
2022/09/21 06:57:45;;;;;;;1.23;1.13;;;18.10;97.60;;;;;;5028303;28;20223;-73
2022/09/21 07:00:14;;;;;;;1.50;1.40;;;18.10;96.90;;;;;;5027886;28;20204;-72
2022/09/21 07:02:44;;;;;;;1.40;1.15;;;18.20;97.10;;;;;;5024885;28;20203;-72
2022/09/21 07:05:12;;;;;;;1.13;1.02;;;18.50;96.00;;;;;;5033193;28;20215;-72
2022/09/21 07:07:40;;;;;;;1.48;1.10;;;18.70;96.10;;;;;;5028589;28;20195;-72
2022/09/21 07:10:09;;;;;;;1.25;1.15;;;18.80;96.00;;;;;;5024954;28;20216;-72
2022/09/21 07:12:36;;;;;;;1.25;1.15;;;18.80;95.60;;;;;;5023523;28;20196;-72
2022/09/21 07:15:05;;;;;;;1.77;1.00;;;18.90;95.60;;;;;;5031383;28;20680;-73
2022/09/21 07:17:33;;;;;;;1.67;1.38;;;18.90;95.50;;;;;;5029375;28;20269;-74
2022/09/21 07:20:01;;;;;;;2.53;1.48;;;19.00;95.50;;;;;;5027991;28;20226;-73
2022/09/21 07:22:29;;;;;;;1.60;1.50;;;18.90;96.60;;;;;;5027393;28;20220;-73
2022/09/21 07:24:56;;;;;;;1.40;1.10;;;18.70;98.10;;;;;;5027182;28;20235;-72
2022/09/21 07:27:26;;;;;;;3.08;1.40;;;18.90;98.30;;;;;;5028052;28;20191;-71
2022/09/21 07:29:53;;;;;;;1.73;1.30;;;19.20;98.50;;;;;;5023556;28;20216;-74
2022/09/21 07:32:21;;;;;;;1.40;1.30;;;19.60;97.50;;;;;;5026035;28;20199;-73
2022/09/21 07:34:48;;;;;;;2.05;1.15;;;19.80;96.40;;;;;;5025794;28;20230;-73
2022/09/21 07:37:16;;;;;;;1.20;1.10;;;19.90;96.10;;;;;;5027123;28;20196;-73
2022/09/21 07:39:43;;;;;;;2.22;1.20;;;19.80;95.20;;;;;;5024573;28;20724;-74
2022/09/21 07:42:10;;;;;;;2.13;1.15;;;19.70;95.60;;;;;;5022920;28;20623;-73
2022/09/21 07:44:40;;;;;;;1.50;1.40;;;19.70;95.30;;;;;;5027154;28;20223;-74
2022/09/21 07:47:07;;;;;;;1.15;1.05;;;19.70;95.40;;;;;;5036933;28;20204;-73
2022/09/21 07:49:34;;;;;;;1.92;1.45;;;19.70;95.50;;;;;;5022736;28;20227;-72
2022/09/21 07:52:01;;;;;;;1.10;1.00;;;19.90;94.90;;;;;;5023988;28;20203;-72
2022/09/21 07:54:29;;;;;;;1.42;1.10;;;20.10;94.70;;;;;;5022886;28;20642;-72
2022/09/21 07:59:42;;;;;;;2.97;1.15;;;20.20;94.50;;;;;;5024830;28;20789;-73
2022/09/21 08:02:09;;;;;;;1.98;1.10;;;19.90;94.90;;;;;;5025570;28;20293;-72
2022/09/21 08:04:37;;;;;;;2.30;1.30;;;19.80;95.50;;;;;;5026916;28;20666;-73
2022/09/21 08:07:05;;;;;;;1.10;1.00;;;20.00;96.00;;;;;;5021520;28;20629;-73
2022/09/21 08:09:32;;;;;;;2.13;1.23;;;20.30;95.70;;;;;;5037216;28;20216;-73
2022/09/21 08:12:01;;;;;;;2.38;1.27;;;20.40;94.50;;;;;;5021745;28;20211;-74
2022/09/21 08:14:28;;;;;;;1.70;1.10;;;20.40;94.30;;;;;;5026260;28;20657;-74
2022/09/21 08:16:57;;;;;;;1.02;0.93;;;20.40;94.20;;;;;;5027821;28;20254;-73
2022/09/21 08:19:25;;;;;;;2.45;1.48;;;20.50;94.30;;;;;;5024637;28;20227;-73
2022/09/21 08:21:52;;;;;;;2.58;1.35;;;20.60;93.70;;;;;;5026137;28;20226;-73
2022/09/21 08:24:20;;;;;;;1.73;1.10;;;20.50;93.50;;;;;;5026440;28;20219;-74
2022/09/21 08:26:51;;;;;;;1.48;1.10;;;20.20;93.40;;;;;;5028566;28;20208;-72
2022/09/21 08:29:18;;;;;;;1.17;1.08;;;20.20;93.10;;;;;;5028116;28;20215;-73
2022/09/21 08:31:45;;;;;;;1.13;1.10;;;20.30;92.40;;;;;;5024785;28;20212;-74
2022/09/21 08:34:15;;;;;;;1.77;1.13;;;20.50;92.40;;;;;;5025413;28;20277;-74
2022/09/21 08:36:42;;;;;;;1.55;1.30;;;20.70;92.20;;;;;;5027272;28;20215;-74
2022/09/21 08:39:10;;;;;;;1.20;1.10;;;21.00;90.90;;;;;;5030396;28;20334;-73
2022/09/21 08:41:59;;;;;;;1.00;1.00;;;20.80;91.10;;;;;;5028563;28;20657;-73
2022/09/21 08:44:30;;;;;;;1.80;1.20;;;20.70;90.80;;;;;;5020800;28;20231;-73
2022/09/21 08:47:05;;;;;;;0.98;0.98;;;20.50;90.90;;;;;;5023872;28;20215;-73
2022/09/21 08:49:35;;;;;;;1.02;0.98;;;20.20;91.00;;;;;;5024405;28;20261;-73
2022/09/21 08:52:05;;;;;;;2.33;1.35;;;20.20;91.50;;;;;;5024936;28;20661;-73
2022/09/21 08:54:39;;;;;;;1.00;0.90;;;20.40;92.50;;;;;;5022302;28;20238;-74
2022/09/21 08:57:08;;;;;;;1.42;0.98;;;20.50;91.90;;;;;;5039829;28;20207;-75
2022/09/21 08:59:38;;;;;;;2.60;1.10;;;20.80;91.40;;;;;;5027292;28;20231;-74
2022/09/21 09:02:29;;;;;;;1.38;1.10;;;21.00;90.80;;;;;;5032217;28;20207;-73
2022/09/21 09:05:09;;;;;;;1.45;1.35;;;20.90;90.30;;;;;;5024944;28;20242;-74
2022/09/21 09:07:59;;;;;;;2.05;1.38;;;21.00;90.50;;;;;;5024836;28;20200;-73
2022/09/21 09:10:37;;;;;;;1.27;1.17;;;21.10;90.20;;;;;;5024417;28;20608;-73
2022/09/21 09:13:27;;;;;;;2.40;1.50;;;20.90;90.30;;;;;;5027456;28;20242;-73
2022/09/21 09:16:11;;;;;;;1.38;1.05;;;21.00;90.50;;;;;;5024144;28;20204;-73
2022/09/21 09:18:44;;;;;;;3.05;1.10;;;21.00;90.30;;;;;;5026305;28;20224;-74
2022/09/21 09:21:20;;;;;;;1.30;0.90;;;21.10;90.20;;;;;;5028531;28;20207;-73
2022/09/21 09:23:53;;;;;;;1.30;1.20;;;21.20;90.10;;;;;;5015111;28;20228;-73
2022/09/21 09:26:25;;;;;;;1.35;1.00;;;21.20;89.80;;;;;;5022993;28;20206;-72
2022/09/21 09:28:56;;;;;;;1.58;1.27;;;21.10;90.20;;;;;;5021712;28;20323;-73
2022/09/21 09:31:28;;;;;;;1.27;0.90;;;21.10;90.00;;;;;;5024509;28;20198;-73
2022/09/21 09:34:00;;;;;;;1.20;1.10;;;21.10;89.10;;;;;;5025771;28;20224;-74
2022/09/21 09:36:32;;;;;;;1.27;1.00;;;21.30;90.00;;;;;;5022270;28;20258;-72
2022/09/21 09:39:03;;;;;;;1.52;1.10;;;21.30;87.30;;;;;;5022421;28;20282;-72
2022/09/21 09:41:59;;;;;;;1.48;1.00;;;21.30;87.30;;;;;;5023327;28;20337;-73
2022/09/21 09:44:47;;;;;;;1.67;1.15;;;21.30;87.40;;;;;;5022168;28;20647;-74
2022/09/21 09:47:29;;;;;;;1.35;1.00;;;21.80;86.60;;;;;;5020786;28;20654;-74
2022/09/21 09:50:05;;;;;;;1.60;1.10;;;21.90;86.10;;;;;;5053948;28;20216;-72
2022/09/21 09:52:34;;;;;;;1.20;1.10;;;21.80;85.00;;;;;;5022397;28;20207;-73
2022/09/21 09:55:11;;;;;;;1.15;1.05;;;21.90;85.70;;;;;;5024730;28;20228;-74
2022/09/21 09:57:38;;;;;;;1.10;1.10;;;22.10;84.50;;;;;;5027511;28;20203;-73
2022/09/21 10:00:11;;;;;;;1.42;1.00;;;21.70;82.50;;;;;;5023727;28;20278;-73
2022/09/21 10:02:47;;;;;;;1.45;1.08;;;21.60;84.60;;;;;;5025139;28;20577;-74
2022/09/21 10:05:22;;;;;;;1.30;1.20;;;21.80;85.00;;;;;;5027609;28;20280;-74
2022/09/21 10:07:52;;;;;;;0.93;0.90;;;21.60;83.80;;;;;;5038716;28;20199;-73
2022/09/21 10:10:31;;;;;;;1.30;0.90;;;21.70;85.70;;;;;;5029182;28;20614;-73
2022/09/21 10:13:10;;;;;;;2.72;1.13;;;22.10;84.70;;;;;;5023361;28;20245;-73
2022/09/21 10:15:43;;;;;;;2.28;1.13;;;22.10;84.20;;;;;;5021477;28;20330;-73
2022/09/21 10:18:19;;;;;;;1.08;0.95;;;22.20;84.40;;;;;;5037210;28;20255;-74
2022/09/21 10:20:54;;;;;;;1.10;1.00;;;22.10;84.40;;;;;;5021200;28;20282;-74
2022/09/21 10:23:24;;;;;;;1.30;1.20;;;22.00;84.00;;;;;;5023397;28;20226;-74
2022/09/21 10:26:01;;;;;;;1.20;1.10;;;21.80;85.00;;;;;;5025671;28;20262;-74
2022/09/21 10:28:29;;;;;;;1.75;1.30;;;21.50;83.70;;;;;;5055546;28;20218;-74
2022/09/21 10:31:16;;;;;;;1.30;1.20;;;21.30;84.10;;;;;;5023088;28;20195;-74
2022/09/21 10:33:50;;;;;;;2.00;1.10;;;21.40;82.30;;;;;;5040973;28;20224;-74
2022/09/21 10:36:28;;;;;;;1.48;1.17;;;21.20;83.00;;;;;;5029592;28;20227;-74
2022/09/21 10:39:10;;;;;;;1.55;1.10;;;21.30;81.90;;;;;;5023213;28;20231;-74
2022/09/21 10:41:38;;;;;;;1.10;1.00;;;21.50;81.10;;;;;;5024714;28;20216;-74
2022/09/21 10:44:11;;;;;;;1.00;1.00;;;21.90;81.30;;;;;;5023837;28;20223;-74
2022/09/21 10:46:38;;;;;;;1.25;1.15;;;22.00;80.00;;;;;;5027849;28;20203;-74
2022/09/21 10:49:15;;;;;;;1.83;1.20;;;22.10;78.90;;;;;;5022208;28;20220;-73
2022/09/21 10:51:46;;;;;;;1.88;1.08;;;22.20;77.80;;;;;;5025017;28;20211;-74
2022/09/21 10:54:20;;;;;;;1.35;1.10;;;22.20;79.30;;;;;;5023377;28;20641;-73
2022/09/21 10:56:56;;;;;;;1.50;1.40;;;22.20;79.10;;;;;;5029253;28;20249;-72
2022/09/21 10:59:27;;;;;;;1.10;1.00;;;22.10;77.90;;;;;;5021179;28;20215;-74
2022/09/21 11:01:58;;;;;;;1.38;0.90;;;22.00;78.40;;;;;;5023561;28;20260;-76
2022/09/21 11:04:43;;;;;;;1.33;1.23;;;22.10;78.10;;;;;;5027745;28;20254;-75
2022/09/21 11:07:20;;;;;;;1.17;1.08;;;22.30;77.60;;;;;;5025190;28;20199;-73
2022/09/21 11:09:58;;;;;;;1.33;0.90;;;22.50;76.90;;;;;;5023193;28;20220;-75
2022/09/21 11:12:43;;;;;;;1.48;1.00;;;22.70;77.50;;;;;;5023220;28;20206;-75
2022/09/21 11:15:20;;;;;;;2.22;1.00;;;22.90;79.40;;;;;;5027393;28;20743;-74
2022/09/21 11:18:01;;;;;;;1.42;1.15;;;23.10;76.00;;;;;;5025568;28;20206;-75
2022/09/21 11:20:36;;;;;;;1.20;1.10;;;23.00;74.20;;;;;;5022346;28;20211;-74
2022/09/21 11:23:11;;;;;;;1.20;1.10;;;22.90;77.10;;;;;;5024004;28;20233;-74
2022/09/21 11:25:44;;;;;;;1.00;1.00;;;22.80;77.70;;;;;;5029438;28;20207;-74
2022/09/21 11:28:21;;;;;;;1.05;1.00;;;22.50;77.20;;;;;;5021120;28;20220;-75
2022/09/21 11:31:03;;;;;;;1.60;1.08;;;22.30;75.80;;;;;;5030764;28;20186;-75
2022/09/21 11:33:43;;;;;;;0.98;0.95;;;22.30;77.40;;;;;;5026899;28;20290;-74
2022/09/21 11:36:21;;;;;;;1.13;0.95;;;22.50;76.50;;;;;;5025509;28;20194;-75
2022/09/21 11:38:57;;;;;;;1.77;1.00;;;23.00;76.80;;;;;;5022685;28;20241;-75
2022/09/21 11:41:41;;;;;;;1.95;1.60;;;23.50;77.60;;;;;;5038055;28;20191;-75
2022/09/21 11:44:25;;;;;;;1.90;1.13;;;23.60;73.80;;;;;;5027719;28;20724;-76
2022/09/21 11:47:06;;;;;;;1.25;0.90;;;23.30;72.70;;;;;;5021419;28;20205;-75
2022/09/21 11:49:47;;;;;;;1.00;0.82;;;23.00;72.00;;;;;;5024830;28;20211;-76
2022/09/21 11:52:32;;;;;;;1.00;0.90;;;22.80;72.40;;;;;;5021696;28;20198;-74
2022/09/21 11:55:23;;;;;;;2.28;1.00;;;22.70;73.90;;;;;;5038366;28;20281;-75
2022/09/21 11:57:58;;;;;;;1.98;0.90;;;22.60;72.10;;;;;;5025915;28;20717;-75
2022/09/21 12:00:31;;;;;;;0.85;0.85;;;22.60;72.90;;;;;;5024390;28;20223;-74
2022/09/21 12:03:41;;;;;;;1.08;1.02;;;22.80;72.80;;;;;;5024122;28;20207;-75
2022/09/21 12:06:28;;;;;;;1.10;1.00;;;22.50;67.70;;;;;;5026329;28;20235;-75
2022/09/21 12:09:17;;;;;;;1.17;0.82;;;22.40;71.20;;;;;;5025176;28;20227;-74
2022/09/21 12:11:50;;;;;;;0.85;0.85;;;22.40;70.80;;;;;;5018141;28;20207;-76
2022/09/21 12:14:32;;;;;;;0.80;0.80;;;22.30;67.50;;;;;;5040212;28;20223;-75
2022/09/21 12:17:05;;;;;;;1.20;1.00;;;22.20;68.20;;;;;;5019189;28;20487;-75
2022/09/21 12:19:41;;;;;;;1.90;0.82;;;22.20;70.70;;;;;;5021429;28;20223;-75
2022/09/21 12:22:11;;;;;;;1.08;0.98;;;21.90;69.40;;;;;;5028503;28;20199;-76
2022/09/21 12:24:43;;;;;;;2.00;1.02;;;21.70;68.70;;;;;;5037394;28;20799;-74
2022/09/21 12:27:26;;;;;;;1.13;0.80;;;21.60;69.50;;;;;;5027866;28;20195;-74
2022/09/21 12:30:00;;;;;;;0.95;0.90;;;21.70;67.90;;;;;;5027645;28;20289;-74
2022/09/21 12:32:46;;;;;;;1.73;1.10;;;21.80;69.70;;;;;;5029299;28;20195;-74
2022/09/21 12:35:16;;;;;;;1.00;0.90;;;21.70;70.90;;;;;;5003482;28;20898;-75
2022/09/21 12:37:50;;;;;;;1.08;0.98;;;21.60;69.60;;;;;;4999626;28;20208;-75
2022/09/21 12:40:26;;;;;;;1.95;1.00;;;21.50;70.50;;;;;;5020269;28;20236;-75
2022/09/21 12:43:03;;;;;;;1.10;0.77;;;21.60;70.00;;;;;;5021065;28;20485;-75
2022/09/21 12:45:36;;;;;;;1.02;0.93;;;21.70;70.00;;;;;;5025026;28;20207;-74
2022/09/21 12:48:09;;;;;;;1.58;0.80;;;21.70;69.90;;;;;;5025749;28;20529;-75
2022/09/21 12:50:42;;;;;;;2.88;1.10;;;21.50;68.20;;;;;;5025451;28;20655;-74
2022/09/21 12:53:17;;;;;;;0.82;0.80;;;21.60;69.80;;;;;;5024338;28;20216;-74
2022/09/21 12:55:52;;;;;;;2.60;1.45;;;21.90;70.60;;;;;;5021234;28;20196;-76
2022/09/21 12:58:38;;;;;;;0.93;0.85;;;21.90;68.40;;;;;;5046248;28;20240;-75
2022/09/21 13:01:19;;;;;;;1.05;0.90;;;21.90;68.40;;;;;;5027489;28;20227;-75
2022/09/21 13:03:54;;;;;;;0.93;0.90;;;21.90;67.30;;;;;;5025905;28;20310;-76
2022/09/21 13:06:51;;;;;;;1.13;1.05;;;22.00;68.00;;;;;;5027796;28;20322;-74
2022/09/21 13:09:20;;;;;;;0.80;0.80;;;22.00;66.30;;;;;;5024084;28;20214;-75
2022/09/21 13:11:55;;;;;;;0.82;0.82;;;22.00;67.10;;;;;;5033549;28;20199;-75
2022/09/21 13:14:26;;;;;;;0.80;0.80;;;22.00;63.00;;;;;;5046824;28;20216;-76
2022/09/21 13:17:01;;;;;;;0.90;0.90;;;22.10;63.70;;;;;;5046665;28;20246;-75
2022/09/21 13:19:30;;;;;;;0.75;0.75;;;22.00;66.30;;;;;;5025405;28;20223;-74
2022/09/21 13:22:22;;;;;;;1.80;0.90;;;22.10;66.90;;;;;;5028580;28;20203;-74